createdAt,value
2022-11-17T00:03:30.925Z,2.23
2022-11-17T00:08:33.217Z,2.20
2022-11-17T00:13:56.991Z,2.21
2022-11-17T00:19:17.843Z,2.22
2022-11-17T00:24:19.742Z,2.18
2022-11-17T00:29:21.614Z,2.09
2022-11-17T00:34:24.016Z,2.04
2022-11-17T00:39:25.863Z,2.02
2022-11-17T00:44:27.859Z,2.02
2022-11-17T00:49:29.755Z,2.00
2022-11-17T00:54:31.592Z,1.98
2022-11-17T00:59:33.496Z,1.98
2022-11-17T01:04:35.321Z,1.98
2022-11-17T01:09:37.184Z,2.00
2022-11-17T01:14:39.089Z,2.02
2022-11-17T01:19:41.125Z,2.01
2022-11-17T01:24:42.987Z,1.99
2022-11-17T01:29:44.894Z,2.01
2022-11-17T01:34:47.573Z,2.05
2022-11-17T01:39:50.827Z,2.08
2022-11-17T01:45:01.812Z,2.09
2022-11-17T01:50:03.689Z,2.12
2022-11-17T01:55:08.771Z,2.14
2022-11-17T02:00:12.094Z,2.17
2022-11-17T02:06:11.675Z,2.24
2022-11-17T02:11:18.221Z,2.33
2022-11-17T02:16:20.322Z,2.39
2022-11-17T02:22:02.208Z,2.43
2022-11-17T02:27:32.215Z,2.43
2022-11-17T02:32:59.510Z,2.43
2022-11-17T02:38:27.491Z,2.48
2022-11-17T02:43:59.411Z,2.47
2022-11-17T02:49:08.426Z,2.50
2022-11-17T02:54:11.704Z,2.49
2022-11-17T02:59:17.072Z,2.51
2022-11-17T03:04:22.012Z,2.49
2022-11-17T03:09:44.519Z,2.50
2022-11-17T03:15:04.590Z,2.51
2022-11-17T03:20:14.392Z,2.51
2022-11-17T03:25:21.614Z,2.50
2022-11-17T03:30:25.688Z,2.48
2022-11-17T03:35:32.402Z,2.49
2022-11-17T03:40:39.453Z,2.50
2022-11-17T03:45:47.405Z,2.50
2022-11-17T03:50:57.937Z,2.53
2022-11-17T03:56:11.083Z,2.54
2022-11-17T04:01:14.947Z,2.51
2022-11-17T04:06:16.838Z,2.51
2022-11-17T04:11:37.596Z,2.53
2022-11-17T04:16:39.395Z,2.54
2022-11-17T04:21:41.373Z,2.57
2022-11-17T04:27:02.049Z,2.57
2022-11-17T04:32:04.073Z,2.56
2022-11-17T04:37:17.376Z,2.57
2022-11-17T04:42:19.490Z,2.61
2022-11-17T04:47:21.342Z,2.62
2022-11-17T04:52:26.891Z,2.62
2022-11-17T04:57:31.597Z,2.64
2022-11-17T05:02:33.457Z,2.63
2022-11-17T05:07:35.401Z,2.65
2022-11-17T05:12:56.030Z,2.68
2022-11-17T05:17:57.835Z,2.66
2022-11-17T05:23:18.361Z,2.67
2022-11-17T05:28:20.214Z,2.68
2022-11-17T05:33:21.985Z,2.68
2022-11-17T05:38:23.877Z,2.67
2022-11-17T05:43:25.743Z,2.70
2022-11-17T05:48:27.738Z,2.71
2022-11-17T05:53:30.379Z,2.72
2022-11-17T05:58:36.607Z,2.74
2022-11-17T06:03:42.282Z,2.76
2022-11-17T06:08:44.123Z,2.73
2022-11-17T06:13:45.964Z,2.72
2022-11-17T06:18:55.325Z,2.73
2022-11-17T06:23:58.154Z,2.69
2022-11-17T06:29:02.287Z,2.69
2022-11-17T06:34:05.235Z,2.68
2022-11-17T06:39:07.034Z,2.67
2022-11-17T06:44:08.907Z,2.71
2022-11-17T06:49:10.731Z,2.72
2022-11-17T06:54:14.839Z,2.71
2022-11-17T06:59:17.420Z,2.69
2022-11-17T07:04:19.640Z,2.71
2022-11-17T07:09:21.614Z,2.73
2022-11-17T07:14:23.565Z,2.77
2022-11-17T07:19:25.482Z,2.79
2022-11-17T07:24:27.409Z,2.81
2022-11-17T07:29:30.958Z,2.79
2022-11-17T07:34:32.832Z,2.76
2022-11-17T07:39:34.717Z,2.74
2022-11-17T07:44:36.593Z,2.74
2022-11-17T07:49:38.481Z,2.76
2022-11-17T07:54:40.840Z,2.78
2022-11-17T07:59:42.692Z,2.76
2022-11-17T08:04:44.578Z,2.76
2022-11-17T08:09:46.501Z,2.79
2022-11-17T08:14:48.424Z,2.79
2022-11-17T08:19:50.444Z,2.80
2022-11-17T08:24:52.333Z,2.79
2022-11-17T08:29:54.284Z,2.78
2022-11-17T08:34:56.174Z,2.76
2022-11-17T08:39:58.012Z,2.78
2022-11-17T08:45:00.670Z,2.83
2022-11-17T08:50:03.133Z,2.85
2022-11-17T08:55:05.980Z,2.91
2022-11-17T09:00:08.775Z,3.01
2022-11-17T09:05:10.667Z,3.10
2022-11-17T09:10:12.937Z,3.15
2022-11-17T09:15:14.834Z,3.16
2022-11-17T09:20:17.791Z,3.22
2022-11-17T09:25:19.629Z,3.30
2022-11-17T09:30:22.491Z,3.31
2022-11-17T09:35:24.313Z,3.32
2022-11-17T09:40:26.601Z,3.32
2022-11-17T09:45:35.247Z,3.31
2022-11-17T09:50:39.394Z,3.32
2022-11-17T09:55:45.528Z,3.29
2022-11-17T10:00:49.032Z,3.28
2022-11-17T10:05:52.200Z,3.30
2022-11-17T10:10:54.051Z,3.37
2022-11-17T10:16:01.113Z,3.35
2022-11-17T10:21:05.501Z,3.30
2022-11-17T10:26:09.961Z,3.25
2022-11-17T10:31:19.550Z,3.22
2022-11-17T10:36:29.176Z,3.23
2022-11-17T10:41:41.351Z,3.24
2022-11-17T10:47:08.208Z,3.21
2022-11-17T10:52:16.959Z,3.16
2022-11-17T10:57:26.717Z,3.08
2022-11-17T11:02:36.298Z,3.00
2022-11-17T11:07:39.888Z,3.02
2022-11-17T11:12:47.789Z,3.07
2022-11-17T11:17:51.160Z,3.07
2022-11-17T11:22:55.913Z,3.14
2022-11-17T11:28:19.516Z,3.21
2022-11-17T11:33:36.699Z,3.21
2022-11-17T11:38:50.280Z,3.15
2022-11-17T11:43:58.193Z,3.15
2022-11-17T11:49:12.972Z,3.25
2022-11-17T11:54:51.203Z,3.32
2022-11-17T12:00:04.467Z,3.30
2022-11-17T12:05:20.279Z,3.31
2022-11-17T12:10:42.069Z,3.26
2022-11-17T12:15:44.168Z,3.22
2022-11-17T12:20:52.083Z,3.21
2022-11-17T12:25:59.168Z,3.17
2022-11-17T12:31:10.664Z,3.10
2022-11-17T12:36:18.540Z,2.98
2022-11-17T12:41:48.346Z,2.87
2022-11-17T12:46:55.741Z,2.74
2022-11-17T12:52:07.042Z,2.64
2022-11-17T12:57:14.755Z,2.62
2022-11-17T13:02:47.946Z,2.65
2022-11-17T13:07:50.277Z,2.62
2022-11-17T13:13:13.115Z,2.59
2022-11-17T13:18:28.594Z,2.52
2022-11-17T13:23:33.670Z,2.51
2022-11-17T13:28:35.590Z,2.54
2022-11-17T13:33:40.403Z,2.59
2022-11-17T13:38:53.198Z,2.58
2022-11-17T13:43:56.144Z,2.57
2022-11-17T13:48:58.024Z,2.59
2022-11-17T13:54:01.147Z,2.58
2022-11-17T13:59:18.157Z,2.53
2022-11-17T14:04:23.183Z,2.56
2022-11-17T14:09:27.374Z,2.49
2022-11-17T14:14:38.415Z,2.45
2022-11-17T14:19:41.006Z,2.39
2022-11-17T14:24:42.858Z,2.37
2022-11-17T14:29:44.958Z,2.33
2022-11-17T14:34:46.906Z,2.28
2022-11-17T14:39:48.770Z,2.26
2022-11-17T14:44:50.593Z,2.15
2022-11-17T14:49:52.404Z,2.10
2022-11-17T14:54:54.274Z,2.04
2022-11-17T14:59:56.165Z,1.99
2022-11-17T15:05:00.183Z,1.96
2022-11-17T15:10:03.107Z,1.90
2022-11-17T15:15:05.520Z,1.87
2022-11-17T15:20:08.084Z,1.85
2022-11-17T15:25:10.017Z,1.85
2022-11-17T15:30:12.524Z,1.85
2022-11-17T15:35:14.419Z,1.86
2022-11-17T15:40:19.432Z,1.83
2022-11-17T15:45:21.690Z,1.76
2022-11-17T15:50:23.509Z,1.71
2022-11-17T15:55:25.338Z,1.73
2022-11-17T16:00:27.204Z,1.79
2022-11-17T16:05:29.052Z,1.81
2022-11-17T16:10:30.883Z,1.85
2022-11-17T16:15:32.685Z,1.85
2022-11-17T16:20:34.620Z,1.89
2022-11-17T16:25:44.158Z,1.90
2022-11-17T16:30:46.034Z,1.84
2022-11-17T16:35:47.885Z,1.81
2022-11-17T16:40:49.757Z,1.81
2022-11-17T16:45:51.586Z,1.77
2022-11-17T16:50:53.465Z,1.72
2022-11-17T16:55:55.272Z,1.70
2022-11-17T17:00:57.792Z,1.73
2022-11-17T17:06:03.975Z,1.71
2022-11-17T17:11:08.811Z,1.69
2022-11-17T17:16:13.648Z,1.67
2022-11-17T17:21:18.278Z,1.70
2022-11-17T17:26:22.518Z,1.68
2022-11-17T17:31:26.248Z,1.74
2022-11-17T17:36:29.232Z,1.76
2022-11-17T17:41:33.519Z,1.75
2022-11-17T17:46:38.512Z,1.69
2022-11-17T17:51:44.275Z,1.67
2022-11-17T17:56:47.507Z,1.70
2022-11-17T18:01:49.794Z,1.76
2022-11-17T18:06:51.796Z,1.72
2022-11-17T18:11:53.671Z,1.70
2022-11-17T18:16:56.027Z,1.73
2022-11-17T18:21:57.880Z,1.70
2022-11-17T18:26:59.790Z,1.64
2022-11-17T18:32:01.664Z,1.58
2022-11-17T18:37:03.579Z,1.53
2022-11-17T18:42:05.555Z,1.51
2022-11-17T18:47:07.492Z,1.49
2022-11-17T18:52:09.909Z,1.51
2022-11-17T18:57:11.799Z,1.50
2022-11-17T19:02:13.667Z,1.53
2022-11-17T19:07:15.630Z,1.56
2022-11-17T19:12:19.119Z,1.57
2022-11-17T19:17:20.993Z,1.58
2022-11-17T19:22:23.263Z,1.57
2022-11-17T19:27:25.083Z,1.57
2022-11-17T19:32:27.074Z,1.54
2022-11-17T19:37:28.983Z,1.51
2022-11-17T19:42:30.922Z,1.52
2022-11-17T19:47:32.760Z,1.56
2022-11-17T19:52:34.903Z,1.57
2022-11-17T19:57:36.728Z,1.55
2022-11-17T20:02:38.560Z,1.50
2022-11-17T20:07:40.466Z,1.49
2022-11-17T20:12:43.878Z,1.46
2022-11-17T20:17:45.728Z,1.43
2022-11-17T20:22:47.595Z,1.41
2022-11-17T20:27:49.477Z,1.39
2022-11-17T20:32:51.276Z,1.38
2022-11-17T20:37:53.109Z,1.35
2022-11-17T20:42:55.242Z,1.33
2022-11-17T20:47:57.109Z,1.33
2022-11-17T20:52:58.964Z,1.38
2022-11-17T20:58:00.798Z,1.43
2022-11-17T21:03:02.708Z,1.43
2022-11-17T21:08:04.822Z,1.36
2022-11-17T21:13:06.715Z,1.30
2022-11-17T21:18:26.467Z,1.24
2022-11-17T21:23:28.545Z,1.22
2022-11-17T21:28:30.417Z,1.24
2022-11-17T21:33:32.337Z,1.23
2022-11-17T21:38:34.424Z,1.26
2022-11-17T21:43:38.439Z,1.26
2022-11-17T21:48:40.955Z,1.25
2022-11-17T21:53:43.288Z,1.21
2022-11-17T21:58:45.173Z,1.20
2022-11-17T22:03:47.147Z,1.17
2022-11-17T22:08:50.079Z,1.14
2022-11-17T22:13:57.954Z,1.13
2022-11-17T22:18:59.882Z,1.18
2022-11-17T22:24:02.689Z,1.18
2022-11-17T22:29:06.479Z,1.19
2022-11-17T22:34:08.848Z,1.20
2022-11-17T22:39:10.807Z,1.20
2022-11-17T22:44:14.410Z,1.21
2022-11-17T22:49:16.414Z,1.22
2022-11-17T22:54:18.398Z,1.23
2022-11-17T22:59:23.378Z,1.26
2022-11-17T23:04:25.304Z,1.26
2022-11-17T23:09:27.322Z,1.27
2022-11-17T23:14:29.279Z,1.27
2022-11-17T23:19:31.098Z,1.24
2022-11-17T23:24:32.921Z,1.27
2022-11-17T23:29:34.790Z,1.29
2022-11-17T23:34:36.619Z,1.30
2022-11-17T23:39:38.552Z,1.30
2022-11-17T23:44:40.391Z,1.29
2022-11-17T23:49:42.223Z,1.23
2022-11-17T23:54:44.586Z,1.21
2022-11-17T23:59:46.413Z,1.19
